createdAt,value
2022-11-14T00:00:00.608Z,1.1
2022-11-14T00:05:00.584Z,1.1
2022-11-14T00:10:00.485Z,1.1
2022-11-14T00:15:00.444Z,1.1
2022-11-14T00:20:00.441Z,1.1
2022-11-14T00:25:00.449Z,1.1
2022-11-14T00:30:00.409Z,1.1
2022-11-14T00:35:00.266Z,1.1
2022-11-14T00:40:00.106Z,1.1
2022-11-14T00:45:00.121Z,1.1
2022-11-14T00:50:00.097Z,1.1
2022-11-14T00:55:00.136Z,1.1
2022-11-14T01:00:00.161Z,1.1
2022-11-14T01:05:00.114Z,1.1
2022-11-14T01:10:00.157Z,1.1
2022-11-14T01:15:00.129Z,1.1
2022-11-14T01:20:00.131Z,1.1
2022-11-14T01:25:00.136Z,1.1
2022-11-14T01:30:00.161Z,1.1
2022-11-14T01:35:00.149Z,1.1
2022-11-14T01:40:00.175Z,1.1
2022-11-14T01:45:00.154Z,1.1
2022-11-14T01:50:00.185Z,1.1
2022-11-14T01:55:00.173Z,1.1
2022-11-14T02:00:00.185Z,1.1
2022-11-14T02:05:00.178Z,1.1
2022-11-14T02:10:00.186Z,1.1
2022-11-14T02:15:00.187Z,1.1
2022-11-14T02:20:04.817Z,1.1
2022-11-14T02:25:00.208Z,1.1
2022-11-14T02:30:00.211Z,1.1
2022-11-14T02:35:00.237Z,1.1
2022-11-14T02:40:00.218Z,1.1
2022-11-14T02:45:00.233Z,1.1
2022-11-14T02:50:00.227Z,1.1
2022-11-14T02:55:00.241Z,1.1
2022-11-14T03:00:00.262Z,1.1
2022-11-14T03:05:00.762Z,1.1
2022-11-14T03:10:00.783Z,1.1
2022-11-14T03:15:00.769Z,1.1
2022-11-14T03:20:00.821Z,1.1
2022-11-14T03:25:00.786Z,1.1
2022-11-14T03:30:00.798Z,1.1
2022-11-14T03:35:00.814Z,1.1
2022-11-14T03:40:00.803Z,1.1
2022-11-14T03:45:00.807Z,1.1
2022-11-14T03:50:00.807Z,1.1
2022-11-14T03:55:00.818Z,1.1
2022-11-14T04:00:00.829Z,1.1
2022-11-14T04:05:00.835Z,1.1
2022-11-14T04:10:00.869Z,1.1
2022-11-14T04:15:00.829Z,1.1
2022-11-14T04:20:00.852Z,1.1
2022-11-14T04:25:00.848Z,1.1
2022-11-14T04:30:00.855Z,1.1
2022-11-14T04:35:00.854Z,1.1
2022-11-14T04:40:00.870Z,1.1
2022-11-14T04:45:00.905Z,1.1
2022-11-14T04:50:00.866Z,1.1
2022-11-14T04:55:00.873Z,1.1
2022-11-14T05:00:00.876Z,1.1
2022-11-14T05:05:00.881Z,1.1
2022-11-14T05:10:00.934Z,1.1
2022-11-14T05:15:00.940Z,1.1
2022-11-14T05:20:00.944Z,1.1
2022-11-14T05:25:00.965Z,1.1
2022-11-14T05:30:00.960Z,1.1
2022-11-14T05:35:00.925Z,1.1
2022-11-14T05:40:00.922Z,1.1
2022-11-14T05:45:00.940Z,1.1
2022-11-14T05:50:00.936Z,1.1
2022-11-14T05:55:00.945Z,1.1
2022-11-14T06:00:00.945Z,1.1
2022-11-14T06:05:00.942Z,1.1
2022-11-14T06:10:00.953Z,1.1
2022-11-14T06:15:00.970Z,1.7
2022-11-14T06:20:00.959Z,2.3
2022-11-14T06:25:01.014Z,3.2
2022-11-14T06:30:01.033Z,4.8
2022-11-14T06:35:00.152Z,6.8
2022-11-14T06:40:00.181Z,7.7
2022-11-14T06:45:00.174Z,8.2
2022-11-14T06:50:00.191Z,9.7
2022-11-14T06:55:00.183Z,14.2
2022-11-14T07:00:00.170Z,19.9
2022-11-14T07:05:00.176Z,30.6
2022-11-14T07:10:00.180Z,44.8
2022-11-14T07:15:00.906Z,66.5
2022-11-14T07:20:00.182Z,98.7
2022-11-14T07:25:00.201Z,163.1
2022-11-14T07:30:00.316Z,263.2
2022-11-14T07:35:02.298Z,395.2
2022-11-14T07:40:00.223Z,414.5
2022-11-14T07:45:00.223Z,404.8
2022-11-14T07:50:00.233Z,461.7
2022-11-14T07:55:00.242Z,532.9
2022-11-14T08:00:00.243Z,600.6
2022-11-14T08:05:00.257Z,342.4
2022-11-14T08:10:00.824Z,244.9
2022-11-14T08:15:00.628Z,338.3
2022-11-14T08:20:00.266Z,346.5
2022-11-14T08:25:00.271Z,326.4
2022-11-14T08:30:00.273Z,404.8
2022-11-14T08:35:00.296Z,607.8
2022-11-14T08:40:00.334Z,744.8
2022-11-14T08:45:00.307Z,912.8
2022-11-14T08:50:00.304Z,781.4
2022-11-14T08:55:00.311Z,753.8
2022-11-14T09:00:00.300Z,622.5
2022-11-14T09:05:00.485Z,701.6
2022-11-14T09:10:00.314Z,607.8
2022-11-14T09:15:00.336Z,772.1
2022-11-14T09:20:00.840Z,762.9
2022-11-14T09:25:00.351Z,565.7
2022-11-14T09:30:00.357Z,502
2022-11-14T09:35:00.352Z,539.3
2022-11-14T09:40:00.348Z,676.9
2022-11-14T09:45:00.351Z,565.7
2022-11-14T09:50:00.355Z,790.8
2022-11-14T09:55:00.379Z,790.8
2022-11-14T10:00:00.400Z,839.5
2022-11-14T10:05:00.856Z,653
2022-11-14T10:10:00.991Z,593.4
2022-11-14T10:15:00.411Z,1105.3
2022-11-14T10:20:00.393Z,1526.4
2022-11-14T10:25:00.389Z,1508.3
2022-11-14T10:30:00.395Z,1354.4
2022-11-14T10:35:00.402Z,870.2
2022-11-14T10:40:00.399Z,1720.4
2022-11-14T10:45:00.405Z,1783.3
2022-11-14T10:50:00.416Z,1848.4
2022-11-14T10:55:00.417Z,1306.7
2022-11-14T11:00:00.431Z,1338.3
2022-11-14T11:05:00.911Z,1783.3
2022-11-14T11:10:00.971Z,2238.1
2022-11-14T11:15:00.444Z,2108.2
2022-11-14T11:20:05.081Z,2265.1
2022-11-14T11:25:00.450Z,1826.4
2022-11-14T11:30:00.471Z,1455.2
2022-11-14T11:35:00.957Z,1420.8
2022-11-14T11:40:00.468Z,1403.9
2022-11-14T11:45:00.465Z,1306.7
2022-11-14T11:50:00.474Z,2775.6
2022-11-14T11:55:00.481Z,3204.1
2022-11-14T12:00:00.501Z,2775.6
2022-11-14T12:05:00.484Z,2710.1
2022-11-14T12:10:10.126Z,2433.5
2022-11-14T12:15:00.497Z,2058.4
2022-11-14T12:20:00.598Z,1870.6
2022-11-14T12:25:00.667Z,1893.1
2022-11-14T12:30:00.640Z,2009.8
2022-11-14T12:35:00.490Z,2404.6
2022-11-14T12:40:00.217Z,1437.9
2022-11-14T12:45:00.139Z,2211.5
2022-11-14T12:50:00.119Z,2842.8
2022-11-14T12:55:00.138Z,2058.4
2022-11-14T13:00:00.125Z,2292.3
2022-11-14T13:05:00.127Z,2376
2022-11-14T13:10:00.153Z,2265.1
2022-11-14T13:15:00.133Z,3128.2
2022-11-14T13:20:00.137Z,3321.1
2022-11-14T13:25:00.145Z,3128.2
2022-11-14T13:30:00.283Z,2946.7
2022-11-14T13:35:00.149Z,2710.1
2022-11-14T13:40:00.159Z,2347.8
2022-11-14T13:45:00.166Z,2185.2
2022-11-14T13:50:00.192Z,2133.6
2022-11-14T13:55:00.202Z,1938.9
2022-11-14T14:00:00.179Z,1762
2022-11-14T14:05:00.235Z,1741
2022-11-14T14:10:00.188Z,1783.3
2022-11-14T14:15:00.200Z,1826.4
2022-11-14T14:20:00.217Z,1783.3
2022-11-14T14:25:00.210Z,1659.7
2022-11-14T14:30:00.216Z,1490.4
2022-11-14T14:35:00.220Z,1230.8
2022-11-14T14:40:00.253Z,912.8
2022-11-14T14:45:00.773Z,718.6
2022-11-14T14:50:00.227Z,668.8
2022-11-14T14:55:00.238Z,637.6
2022-11-14T15:00:00.367Z,637.6
2022-11-14T15:05:00.243Z,579.4
2022-11-14T15:10:00.250Z,478.5
2022-11-14T15:15:00.264Z,359.1
2022-11-14T15:20:00.284Z,279.4
2022-11-14T15:25:00.265Z,202.3
2022-11-14T15:30:00.281Z,165.1
2022-11-14T15:35:00.280Z,125.4
2022-11-14T15:40:00.397Z,94.1
2022-11-14T15:45:00.286Z,64.9
2022-11-14T15:50:00.306Z,44.3
2022-11-14T15:55:00.297Z,25.6
2022-11-14T16:00:00.306Z,14.6
2022-11-14T16:05:00.307Z,6.4
2022-11-14T16:10:00.337Z,2.3
2022-11-14T16:15:00.370Z,1.1
2022-11-14T16:20:00.432Z,1.1
2022-11-14T16:25:00.392Z,1.1
2022-11-14T16:30:00.598Z,1.1
2022-11-14T16:35:00.366Z,1.1
2022-11-14T16:40:00.469Z,1.1
2022-11-14T16:45:00.478Z,1.1
2022-11-14T16:50:00.532Z,1.1
2022-11-14T16:55:00.357Z,1.1
2022-11-14T17:00:00.370Z,1.1
2022-11-14T17:05:00.396Z,1.1
2022-11-14T17:10:00.390Z,1.1
2022-11-14T17:15:00.395Z,1.1
2022-11-14T17:20:00.388Z,1.1
2022-11-14T17:25:00.445Z,1.1
2022-11-14T17:30:00.402Z,1.1
2022-11-14T17:35:00.400Z,1.1
2022-11-14T17:40:00.410Z,1.1
2022-11-14T17:45:00.405Z,1.1
2022-11-14T17:50:00.417Z,1.1
2022-11-14T17:55:00.420Z,1.1
2022-11-14T18:00:00.438Z,1.1
2022-11-14T18:05:00.428Z,1.1
2022-11-14T18:10:00.436Z,1.1
2022-11-14T18:15:00.451Z,1.1
2022-11-14T18:20:00.452Z,1.1
2022-11-14T18:25:06.436Z,1.1
2022-11-14T18:30:13.431Z,1.1
2022-11-14T18:35:00.337Z,1.1
2022-11-14T18:40:00.191Z,1.1
2022-11-14T18:45:00.109Z,1.1
2022-11-14T18:50:00.158Z,1.1
2022-11-14T18:55:00.143Z,1.1
2022-11-14T19:00:00.161Z,1.1
2022-11-14T19:05:00.179Z,1.1
2022-11-14T19:10:00.121Z,1.1
2022-11-14T19:15:00.158Z,1.1
2022-11-14T19:20:00.142Z,1.1
2022-11-14T19:25:00.176Z,1.1
2022-11-14T19:30:00.162Z,1.1
2022-11-14T19:35:00.177Z,1.1
2022-11-14T19:40:00.211Z,1.1
2022-11-14T19:45:00.167Z,1.1
2022-11-14T19:50:00.172Z,1.1
2022-11-14T19:55:00.181Z,1.1
2022-11-14T20:00:00.184Z,1.1
2022-11-14T20:05:00.186Z,1.1
2022-11-14T20:10:00.189Z,1.1
2022-11-14T20:15:00.452Z,1.1
2022-11-14T20:20:00.222Z,1.1
2022-11-14T20:25:00.206Z,1.1
2022-11-14T20:30:00.218Z,1.1
2022-11-14T20:35:00.289Z,1.1
2022-11-14T20:40:00.328Z,1.1
2022-11-14T20:45:00.350Z,1.1
2022-11-14T20:50:00.392Z,1.1
2022-11-14T20:55:00.355Z,1.1
2022-11-14T21:00:00.268Z,1.1
2022-11-14T21:05:00.241Z,1.1
2022-11-14T21:10:00.284Z,1.1
2022-11-14T21:15:00.264Z,1.1
2022-11-14T21:20:00.263Z,1.1
2022-11-14T21:25:00.270Z,1.1
2022-11-14T21:30:00.291Z,1.1
2022-11-14T21:35:01.746Z,1.1
2022-11-14T21:40:00.277Z,1.1
2022-11-14T21:45:00.284Z,1.1
2022-11-14T21:50:01.476Z,1.1
2022-11-14T21:55:01.369Z,1.1
2022-11-14T22:00:00.302Z,1.1
2022-11-14T22:05:00.319Z,1.1
2022-11-14T22:10:00.322Z,1.1
2022-11-14T22:15:00.315Z,1.1
2022-11-14T22:20:00.331Z,1.1
2022-11-14T22:25:00.334Z,1.1
2022-11-14T22:30:00.339Z,1.1
2022-11-14T22:35:00.358Z,1.1
2022-11-14T22:40:00.355Z,1.1
2022-11-14T22:45:00.366Z,1.1
2022-11-14T22:50:00.359Z,1.1
2022-11-14T22:55:00.374Z,1.1
2022-11-14T23:00:00.368Z,1.1
2022-11-14T23:05:00.369Z,1.1
2022-11-14T23:10:00.543Z,1.1
2022-11-14T23:15:00.456Z,1.1
2022-11-14T23:20:00.467Z,1.1
2022-11-14T23:25:00.500Z,1.1
2022-11-14T23:30:00.467Z,1.1
2022-11-14T23:35:00.465Z,1.1
2022-11-14T23:40:00.451Z,1.1
2022-11-14T23:45:00.484Z,1.1
2022-11-14T23:50:00.524Z,1.1
2022-11-14T23:55:00.488Z,1.1
